createdAt,value
2023-01-02T00:01:17.183Z,8.63
2023-01-02T00:05:18.904Z,10.17
2023-01-02T00:09:20.742Z,10.13
2023-01-02T00:13:22.494Z,8.90
2023-01-02T00:17:24.326Z,11.03
2023-01-02T00:21:26.091Z,8.23
2023-01-02T00:25:28.043Z,7.80
2023-01-02T00:29:29.807Z,8.10
2023-01-02T00:33:31.664Z,10.77
2023-01-02T00:37:33.554Z,8.50
2023-01-02T00:41:35.346Z,9.40
2023-01-02T00:45:37.100Z,9.90
2023-01-02T00:49:38.901Z,8.23
2023-01-02T00:53:40.623Z,9.40
2023-01-02T00:57:42.415Z,9.37
2023-01-02T01:01:44.295Z,7.40
2023-01-02T01:05:46.267Z,7.83
2023-01-02T01:09:48.014Z,8.63
2023-01-02T01:13:49.740Z,8.83
2023-01-02T01:17:51.473Z,8.27
2023-01-02T01:21:53.314Z,8.87
2023-01-02T01:25:55.040Z,6.93
2023-01-02T01:29:56.784Z,7.80
2023-01-02T01:33:58.556Z,7.27
2023-01-02T01:38:00.311Z,7.03
2023-01-02T01:42:02.304Z,7.50
2023-01-02T01:46:06.208Z,6.77
2023-01-02T01:50:19.542Z,6.37
2023-01-02T01:54:25.514Z,6.30
2023-01-02T01:58:31.694Z,6.77
2023-01-02T02:02:33.790Z,5.17
2023-01-02T02:06:35.945Z,3.87
2023-01-02T02:10:38.364Z,3.23
2023-01-02T02:14:40.146Z,3.73
2023-01-02T02:18:45.925Z,4.67
2023-01-02T02:23:21.499Z,9.10
2023-01-02T02:27:40.947Z,9.13
2023-01-02T02:32:02.400Z,8.50
2023-01-02T02:36:34.837Z,7.93
2023-01-02T02:41:08.036Z,9.37
2023-01-02T02:45:25.916Z,9.73
2023-01-02T02:49:56.426Z,9.27
2023-01-02T02:54:11.868Z,8.77
2023-01-02T02:58:13.913Z,9.30
2023-01-02T03:02:16.923Z,7.63
2023-01-02T03:06:25.505Z,8.27
2023-01-02T03:10:53.492Z,8.87
2023-01-02T03:15:12.485Z,9.33
2023-01-02T03:19:59.568Z,9.53
2023-01-02T03:24:12.496Z,8.03
2023-01-02T03:28:17.448Z,7.77
2023-01-02T03:32:32.377Z,8.87
2023-01-02T03:36:34.218Z,9.83
2023-01-02T03:40:40.473Z,8.03
2023-01-02T03:45:01.935Z,8.20
2023-01-02T03:49:16.020Z,5.40
2023-01-02T03:53:17.780Z,4.03
2023-01-02T03:57:31.783Z,2.33
2023-01-02T04:01:45.612Z,4.90
2023-01-02T04:05:52.701Z,2.97
2023-01-02T04:09:54.523Z,3.63
2023-01-02T04:14:03.109Z,6.30
2023-01-02T04:18:10.047Z,6.97
2023-01-02T04:22:35.861Z,7.97
2023-01-02T04:26:51.979Z,7.37
2023-01-02T04:31:18.210Z,9.17
2023-01-02T04:35:22.013Z,10.67
2023-01-02T04:39:23.765Z,8.87
2023-01-02T04:43:25.479Z,11.43
2023-01-02T04:47:27.208Z,8.33
2023-01-02T04:51:28.942Z,8.07
2023-01-02T04:55:30.693Z,9.40
2023-01-02T04:59:32.482Z,9.97
2023-01-02T05:03:34.188Z,7.53
2023-01-02T05:07:37.170Z,10.20
2023-01-02T05:11:38.908Z,11.43
2023-01-02T05:15:40.694Z,11.20
2023-01-02T05:19:42.482Z,10.43
2023-01-02T05:23:49.927Z,11.27
2023-01-02T05:27:55.148Z,9.67
2023-01-02T05:31:56.957Z,8.37
2023-01-02T05:35:58.785Z,11.43
2023-01-02T05:40:00.723Z,9.53
2023-01-02T05:44:02.660Z,10.53
2023-01-02T05:48:05.067Z,9.37
2023-01-02T05:52:08.328Z,11.40
2023-01-02T05:56:16.138Z,9.40
2023-01-02T06:00:18.320Z,9.43
2023-01-02T06:04:20.936Z,9.50
2023-01-02T06:08:23.190Z,7.70
2023-01-02T06:12:26.671Z,11.77
2023-01-02T06:16:29.350Z,9.30
2023-01-02T06:20:31.535Z,10.37
2023-01-02T06:24:33.391Z,9.53
2023-01-02T06:28:35.566Z,11.37
2023-01-02T06:32:38.830Z,9.13
2023-01-02T06:36:41.896Z,9.63
2023-01-02T06:40:54.530Z,8.70
2023-01-02T06:44:57.060Z,9.73
2023-01-02T06:48:59.447Z,11.00
2023-01-02T06:53:01.616Z,10.10
2023-01-02T06:57:03.625Z,9.43
2023-01-02T07:01:11.626Z,9.57
2023-01-02T07:05:21.141Z,10.10
2023-01-02T07:09:29.332Z,10.73
2023-01-02T07:13:31.234Z,12.57
2023-01-02T07:17:33.568Z,10.90
2023-01-02T07:21:36.600Z,11.83
2023-01-02T07:25:44.231Z,13.40
2023-01-02T07:29:46.432Z,11.90
2023-01-02T07:33:48.347Z,12.87
2023-01-02T07:37:50.158Z,11.97
2023-01-02T07:41:51.940Z,14.30
2023-01-02T07:45:53.828Z,16.43
2023-01-02T07:49:55.556Z,12.10
2023-01-02T07:53:57.593Z,13.83
2023-01-02T07:57:59.351Z,14.40
2023-01-02T08:02:01.169Z,14.27
2023-01-02T08:06:11.158Z,14.40
2023-01-02T08:10:13.025Z,14.23
2023-01-02T08:14:18.501Z,11.60
2023-01-02T08:18:24.925Z,12.53
2023-01-02T08:22:26.665Z,13.00
2023-01-02T08:26:28.461Z,12.47
2023-01-02T08:30:30.214Z,12.93
2023-01-02T08:34:32.012Z,11.00
2023-01-02T08:38:33.848Z,13.13
2023-01-02T08:42:35.600Z,12.87
2023-01-02T08:46:42.570Z,13.20
2023-01-02T08:50:44.912Z,14.37
2023-01-02T08:54:46.659Z,14.93
2023-01-02T08:58:56.048Z,11.73
2023-01-02T09:02:57.921Z,14.70
2023-01-02T09:06:59.837Z,11.93
2023-01-02T09:11:11.885Z,12.90
2023-01-02T09:15:13.722Z,10.63
2023-01-02T09:19:15.540Z,12.20
2023-01-02T09:23:17.343Z,12.27
2023-01-02T09:27:19.429Z,12.23
2023-01-02T09:31:21.956Z,11.37
2023-01-02T09:35:23.814Z,12.20
2023-01-02T09:39:31.924Z,10.47
2023-01-02T09:43:39.676Z,13.53
2023-01-02T09:47:41.402Z,12.50
2023-01-02T09:51:44.018Z,12.13
2023-01-02T09:55:52.052Z,10.90
2023-01-02T10:00:18.322Z,10.40
2023-01-02T10:04:50.860Z,9.37
2023-01-02T10:09:31.393Z,9.33
2023-01-02T10:18:26.067Z,10.33
2023-01-02T10:22:43.680Z,10.30
2023-01-02T10:26:53.437Z,12.60
2023-01-02T10:31:06.772Z,11.43
2023-01-02T10:35:13.001Z,10.40
2023-01-02T10:39:22.798Z,12.30
2023-01-02T10:43:27.148Z,12.33
2023-01-02T10:47:39.130Z,10.73
2023-01-02T10:51:48.433Z,11.40
2023-01-02T10:55:50.614Z,11.20
2023-01-02T10:59:58.741Z,12.23
2023-01-02T11:04:09.968Z,10.67
2023-01-02T11:08:18.398Z,9.97
2023-01-02T11:12:27.219Z,11.10
2023-01-02T11:21:07.776Z,10.57
2023-01-02T11:26:02.472Z,8.90
2023-01-02T11:30:42.424Z,10.73
2023-01-02T11:34:48.906Z,9.70
2023-01-02T11:38:55.131Z,11.03
2023-01-02T11:43:18.546Z,9.67
2023-01-02T11:47:33.493Z,10.00
2023-01-02T11:51:44.568Z,9.37
2023-01-02T11:56:16.212Z,10.57
2023-01-02T12:00:40.599Z,9.53
2023-01-02T12:04:48.932Z,10.63
2023-01-02T12:09:28.901Z,10.07
2023-01-02T12:14:07.841Z,9.20
2023-01-02T12:18:52.423Z,9.57
2023-01-02T12:23:33.161Z,12.43
2023-01-02T12:28:01.959Z,9.10
2023-01-02T12:33:05.159Z,8.90
2023-01-02T12:37:47.931Z,11.13
2023-01-02T12:42:32.285Z,10.07
2023-01-02T12:47:17.305Z,10.83
2023-01-02T12:51:41.111Z,10.97
2023-01-02T12:55:54.643Z,12.70
2023-01-02T13:00:37.276Z,10.33
2023-01-02T13:04:44.643Z,13.00
2023-01-02T13:09:21.767Z,10.83
2023-01-02T13:13:31.252Z,9.20
2023-01-02T13:17:51.484Z,9.47
2023-01-02T13:22:21.593Z,11.80
2023-01-02T13:26:26.210Z,11.07
2023-01-02T13:30:34.146Z,8.40
2023-01-02T13:34:37.547Z,12.97
2023-01-02T13:38:39.342Z,9.70
2023-01-02T13:42:58.993Z,9.57
2023-01-02T13:47:25.840Z,9.03
2023-01-02T13:51:33.988Z,8.33
2023-01-02T13:56:01.110Z,8.83
2023-01-02T14:00:35.422Z,8.83
2023-01-02T14:04:37.837Z,8.60
2023-01-02T14:08:42.318Z,12.87
2023-01-02T14:12:54.621Z,14.07
2023-01-02T14:17:41.346Z,9.73
2023-01-02T14:21:48.659Z,8.63
2023-01-02T14:25:50.493Z,11.73
2023-01-02T14:29:57.326Z,9.90
2023-01-02T14:33:59.080Z,9.00
2023-01-02T14:38:31.470Z,11.27
2023-01-02T14:42:51.607Z,11.33
2023-01-02T14:46:53.571Z,8.93
2023-01-02T14:50:55.450Z,14.50
2023-01-02T14:55:21.648Z,17.67
2023-01-02T14:59:42.733Z,9.50
2023-01-02T15:03:57.217Z,15.10
2023-01-02T15:07:59.091Z,10.60
2023-01-02T15:12:21.432Z,7.23
2023-01-02T15:16:23.841Z,5.53
2023-01-02T15:20:30.105Z,4.10
2023-01-02T15:24:32.033Z,7.27
2023-01-02T15:28:34.231Z,5.03
2023-01-02T15:32:36.592Z,7.27
2023-01-02T15:36:40.524Z,4.80
2023-01-02T15:40:45.103Z,4.17
2023-01-02T15:45:05.736Z,6.43
2023-01-02T15:49:09.965Z,6.93
2023-01-02T15:53:34.707Z,6.07
2023-01-02T15:57:51.025Z,7.23
2023-01-02T16:01:52.960Z,5.60
2023-01-02T16:05:56.204Z,7.07
2023-01-02T16:09:58.037Z,6.30
2023-01-02T16:14:20.249Z,5.77
2023-01-02T16:18:22.506Z,6.60
2023-01-02T16:22:44.508Z,5.13
2023-01-02T16:26:49.477Z,6.07
2023-01-02T16:31:07.894Z,5.80
2023-01-02T16:35:32.391Z,7.30
2023-01-02T16:39:48.165Z,5.03
2023-01-02T16:43:52.269Z,5.17
2023-01-02T16:47:54.169Z,8.03
2023-01-02T16:51:55.995Z,7.13
2023-01-02T16:56:00.890Z,9.27
2023-01-02T17:00:03.214Z,8.10
2023-01-02T17:04:05.346Z,5.47
2023-01-02T17:08:07.406Z,6.93
2023-01-02T17:12:13.347Z,5.33
2023-01-02T17:16:15.855Z,8.03
2023-01-02T17:20:17.978Z,6.83
2023-01-02T17:24:20.707Z,5.93
2023-01-02T17:28:22.607Z,5.20
2023-01-02T17:32:24.449Z,6.23
2023-01-02T17:36:26.347Z,4.30
2023-01-02T17:40:28.173Z,6.27
2023-01-02T17:44:35.491Z,5.27
2023-01-02T17:48:37.467Z,8.63
2023-01-02T17:52:39.417Z,7.23
2023-01-02T17:56:43.473Z,7.20
2023-01-02T18:00:48.583Z,6.87
2023-01-02T18:04:55.450Z,5.37
2023-01-02T18:08:57.581Z,4.90
2023-01-02T18:12:59.729Z,5.23
2023-01-02T18:17:26.872Z,7.23
2023-01-02T18:21:34.374Z,5.53
2023-01-02T18:25:36.185Z,5.43
2023-01-02T18:29:40.719Z,7.90
2023-01-02T18:33:43.507Z,10.73
2023-01-02T18:37:45.473Z,10.63
2023-01-02T18:41:49.944Z,7.43
2023-01-02T18:45:54.751Z,5.90
2023-01-02T18:50:01.416Z,10.80
2023-01-02T18:54:06.324Z,6.53
2023-01-02T18:58:46.409Z,4.33
2023-01-02T19:02:54.471Z,5.37
2023-01-02T19:07:31.047Z,4.57
2023-01-02T19:11:52.302Z,4.40
2023-01-02T19:16:13.183Z,5.17
2023-01-02T19:20:18.332Z,7.97
2023-01-02T19:24:30.121Z,6.10
2023-01-02T19:28:49.122Z,6.33
2023-01-02T19:32:51.084Z,6.03
2023-01-02T19:37:13.239Z,4.33
2023-01-02T19:41:15.925Z,4.70
2023-01-02T19:45:26.025Z,4.43
2023-01-02T19:49:27.967Z,4.80
2023-01-02T19:53:29.871Z,6.80
2023-01-02T19:57:39.648Z,4.13
2023-01-02T20:01:41.586Z,6.17
2023-01-02T20:05:46.184Z,6.77
2023-01-02T20:10:03.165Z,4.47
2023-01-02T20:14:05.106Z,5.80
2023-01-02T20:18:08.844Z,6.63
2023-01-02T20:22:11.278Z,4.73
2023-01-02T20:26:13.157Z,5.80
2023-01-02T20:30:20.311Z,4.67
2023-01-02T20:34:25.789Z,4.50
2023-01-02T20:38:28.066Z,5.07
2023-01-02T20:42:30.323Z,4.40
2023-01-02T20:46:32.155Z,1.60
2023-01-02T20:50:33.976Z,1.03
2023-01-02T20:54:35.869Z,1.43
2023-01-02T20:58:37.724Z,1.00
2023-01-02T21:02:39.669Z,1.03
2023-01-02T21:06:42.050Z,0.97
2023-01-02T21:10:44.012Z,1.77
2023-01-02T21:14:46.640Z,0.90
2023-01-02T21:18:48.617Z,1.00
2023-01-02T21:22:50.369Z,2.20
2023-01-02T21:26:52.262Z,1.83
2023-01-02T21:30:54.446Z,1.27
2023-01-02T21:34:56.208Z,1.87
2023-01-02T21:38:57.942Z,1.10
2023-01-02T21:42:59.821Z,1.60
2023-01-02T21:47:03.354Z,1.70
2023-01-02T21:51:06.539Z,1.20
2023-01-02T21:55:08.903Z,2.63
2023-01-02T21:59:10.710Z,1.30
2023-01-02T22:03:12.823Z,2.23
2023-01-02T22:07:31.664Z,1.20
2023-01-02T22:11:52.605Z,1.57
2023-01-02T22:15:54.819Z,1.50
2023-01-02T22:19:56.910Z,1.53
2023-01-02T22:23:58.918Z,1.67
2023-01-02T22:28:01.003Z,0.93
2023-01-02T22:32:04.071Z,1.23
2023-01-02T22:36:06.990Z,1.30
2023-01-02T22:40:09.703Z,1.10
2023-01-02T22:44:19.084Z,1.53
2023-01-02T22:48:26.930Z,1.27
2023-01-02T22:52:29.010Z,1.97
2023-01-02T22:56:30.753Z,1.43
2023-01-02T23:00:32.542Z,1.47
2023-01-02T23:04:34.473Z,1.50
2023-01-02T23:08:36.360Z,1.23
2023-01-02T23:12:38.144Z,0.90
2023-01-02T23:16:58.631Z,1.10
2023-01-02T23:21:08.396Z,1.20
2023-01-02T23:25:10.220Z,1.30
2023-01-02T23:29:12.320Z,1.70
2023-01-02T23:33:14.111Z,1.63
2023-01-02T23:37:15.858Z,1.83
2023-01-02T23:41:17.800Z,2.50
2023-01-02T23:45:19.791Z,2.13
2023-01-02T23:49:23.728Z,1.50
2023-01-02T23:53:26.149Z,1.10
2023-01-02T23:57:27.907Z,1.30
